Time;durP1;ratioP1;P1;durP2;ratioP2;P2;SDS_P1;SDS_P2;PMS_P1;PMS_P2;Temp;Humidity;BMP_temperature;BMP_pressure;BME280_temperature;BME280_humidity;BME280_pressure;Samples;Min_cycle;Max_cycle;Signal;HPM_P1;HPM_P2
2021/12/17 08:29:06;;;;;;;41.55;13.88;;;;;;;;;;5091725;27;20462;-63
2021/12/17 08:31:33;;;;;;;47.92;15.32;;;7.90;99.90;;;;;;5091320;28;20056;-63
2021/12/17 08:34:02;;;;;;;43.08;14.80;;;;;;;;;;5091096;28;20066;-64
2021/12/17 08:36:28;;;;;;;43.10;15.93;;;7.90;99.90;;;;;;5091055;28;20531;-63
2021/12/17 08:38:54;;;;;;;43.33;15.68;;;7.90;99.90;;;;;;5091580;28;20052;-64
2021/12/17 08:41:21;;;;;;;42.35;16.77;;;8.10;99.90;;;;;;5090970;28;20169;-63
2021/12/17 08:43:47;;;;;;;34.83;14.25;;;7.90;99.90;;;;;;5090905;28;20048;-63
2021/12/17 08:46:13;;;;;;;36.35;15.05;;;8.00;99.90;;;;;;5091368;28;20199;-61
2021/12/17 08:48:39;;;;;;;35.35;14.27;;;8.00;99.90;;;;;;5090853;28;20040;-61
2021/12/17 08:51:07;;;;;;;34.50;14.50;;;8.00;99.90;;;;;;5090885;28;20044;-62
2021/12/17 08:53:34;;;;;;;36.38;14.65;;;8.00;99.90;;;;;;5087547;28;20052;-64
2021/12/17 08:56:00;;;;;;;33.30;14.35;;;8.00;99.90;;;;;;5077405;28;20053;-62
2021/12/17 08:58:26;;;;;;;32.35;14.10;;;8.00;99.90;;;;;;5073155;28;20060;-63
2021/12/17 09:00:52;;;;;;;33.40;13.98;;;8.10;99.90;;;;;;5080999;28;20036;-62
2021/12/17 09:03:18;;;;;;;31.55;13.23;;;8.10;99.90;;;;;;5072908;28;20049;-62
2021/12/17 09:05:45;;;;;;;29.85;12.77;;;8.10;99.90;;;;;;5070129;28;20071;-65
2021/12/17 09:08:11;;;;;;;33.53;13.63;;;8.10;99.90;;;;;;5070000;28;20049;-63
2021/12/17 09:10:37;;;;;;;;;;;8.10;99.90;;;;;;5070091;28;20049;-64
2021/12/17 09:13:05;;;;;;;28.73;13.10;;;8.20;99.90;;;;;;5069418;28;19925;-65
2021/12/17 09:15:31;;;;;;;31.35;13.27;;;8.10;99.90;;;;;;5069656;28;20052;-64
2021/12/17 09:17:57;;;;;;;;;;;8.10;99.90;;;;;;5070158;28;20037;-63
2021/12/17 09:20:23;;;;;;;31.88;12.98;;;8.10;99.90;;;;;;5069977;28;19982;-64
2021/12/17 09:22:48;;;;;;;;;;;8.10;99.90;;;;;;5070872;28;20044;-63
2021/12/17 09:25:14;;;;;;;32.22;13.07;;;8.10;99.90;;;;;;5069813;28;19921;-64
2021/12/17 09:27:41;;;;;;;27.42;12.77;;;8.20;99.90;;;;;;5069518;28;20068;-63
2021/12/17 09:30:10;;;;;;;27.70;12.88;;;8.10;99.90;;;;;;5069767;28;20040;-65
2021/12/17 09:32:38;;;;;;;28.83;14.65;;;8.20;99.90;;;;;;5069691;28;20049;-63
2021/12/17 09:35:05;;;;;;;28.17;13.35;;;8.20;99.90;;;;;;5069250;28;20484;-63
2021/12/17 09:37:31;;;;;;;28.98;12.35;;;8.30;99.90;;;;;;5069413;28;20041;-63
2021/12/17 09:39:57;;;;;;;24.52;11.57;;;8.30;99.90;;;;;;5057831;28;20041;-63
2021/12/17 09:42:23;;;;;;;27.92;13.10;;;8.50;99.90;;;;;;5055888;28;20052;-64
2021/12/17 09:44:49;;;;;;;27.17;12.60;;;8.70;99.90;;;;;;5056096;28;20045;-64
2021/12/17 09:47:14;;;;;;;24.73;12.35;;;8.60;99.90;;;;;;5056392;28;20162;-63
2021/12/17 09:49:40;;;;;;;28.40;12.32;;;8.40;99.90;;;;;;5056167;28;20048;-63
2021/12/17 09:52:06;;;;;;;24.40;12.43;;;8.30;99.90;;;;;;5056117;28;20049;-63
2021/12/17 09:54:32;;;;;;;25.88;11.95;;;8.30;99.90;;;;;;5056117;28;20088;-65
2021/12/17 09:56:57;;;;;;;25.13;11.27;;;9.00;99.90;;;;;;5056401;28;20143;-64
2021/12/17 09:59:23;;;;;;;28.48;12.20;;;9.40;99.90;;;;;;5055984;28;20447;-65
2021/12/17 10:01:49;;;;;;;27.88;12.38;;;8.40;99.90;;;;;;5055911;28;20401;-63
2021/12/17 10:04:20;;;;;;;26.05;11.50;;;8.40;99.90;;;;;;5055601;28;20047;-64
2021/12/17 10:06:47;;;;;;;27.55;12.68;;;8.40;99.90;;;;;;5055651;28;20459;-64
2021/12/17 10:09:15;;;;;;;26.77;12.68;;;8.40;99.90;;;;;;5055506;28;20551;-65
2021/12/17 10:12:02;;;;;;;24.45;12.00;;;9.10;99.90;;;;;;5055734;28;20045;-64
2021/12/17 10:14:28;;;;;;;29.27;12.93;;;8.60;99.90;;;;;;5038418;28;20151;-62
2021/12/17 10:17:12;;;;;;;29.08;12.50;;;8.50;99.90;;;;;;5055487;28;20045;-62
2021/12/17 10:19:53;;;;;;;26.83;12.85;;;8.50;99.90;;;;;;5055483;28;20045;-63
2021/12/17 10:22:20;;;;;;;29.88;13.50;;;8.60;99.90;;;;;;5038478;28;20053;-66
2021/12/17 10:25:02;;;;;;;32.35;13.80;;;8.60;99.90;;;;;;5066233;28;20377;-68
2021/12/17 10:27:33;;;;;;;27.55;12.55;;;8.60;99.90;;;;;;5054948;28;20057;-66
2021/12/17 10:30:27;;;;;;;26.05;13.18;;;8.60;99.90;;;;;;5070063;28;20080;-64
2021/12/17 10:32:56;;;;;;;27.30;12.70;;;8.70;99.90;;;;;;5075453;28;20481;-64
2021/12/17 10:35:25;;;;;;;26.60;13.57;;;8.70;99.90;;;;;;5075254;28;20480;-64
2021/12/17 10:38:04;;;;;;;26.23;13.07;;;8.80;99.90;;;;;;5075109;28;20036;-63
2021/12/17 10:40:34;;;;;;;29.63;13.68;;;8.80;99.90;;;;;;5074316;28;20087;-63
2021/12/17 10:43:17;;;;;;;23.92;12.48;;;8.80;99.90;;;;;;5055458;28;20095;-63
2021/12/17 10:45:58;;;;;;;25.10;12.77;;;8.80;99.90;;;;;;5054211;28;20128;-65
2021/12/17 10:48:38;;;;;;;23.20;12.82;;;9.50;99.90;;;;;;5065186;28;20127;-62
2021/12/17 10:51:18;;;;;;;23.77;12.35;;;8.80;99.90;;;;;;5058579;28;20063;-61
2021/12/17 10:53:56;;;;;;;25.38;12.13;;;8.90;99.90;;;;;;5055004;28;20123;-65
2021/12/17 10:56:34;;;;;;;22.95;11.95;;;8.90;99.90;;;;;;5055356;28;20052;-65
2021/12/17 10:59:03;;;;;;;27.00;11.50;;;8.90;99.90;;;;;;5055501;28;20049;-64
2021/12/17 11:01:40;;;;;;;27.40;12.38;;;8.90;99.90;;;;;;5063648;28;20135;-64
2021/12/17 11:04:10;;;;;;;22.38;11.10;;;8.90;99.90;;;;;;5075420;28;20045;-64
2021/12/17 11:06:48;;;;;;;20.30;10.95;;;8.90;99.90;;;;;;5074471;28;20397;-64
2021/12/17 11:09:36;;;;;;;23.55;11.80;;;8.90;99.90;;;;;;5074360;28;20136;-65
2021/12/17 11:12:29;;;;;;;25.25;11.30;;;8.90;99.90;;;;;;5074479;28;20135;-64
2021/12/17 11:15:11;;;;;;;19.83;10.73;;;9.00;99.90;;;;;;5073224;28;20127;-63
2021/12/17 11:17:43;;;;;;;21.02;11.15;;;9.00;99.90;;;;;;5074392;28;20040;-64
2021/12/17 11:20:21;;;;;;;20.70;10.43;;;9.00;99.90;;;;;;5073198;28;20476;-64
2021/12/17 11:23:10;;;;;;;21.73;11.02;;;9.00;99.90;;;;;;5074073;28;20488;-67
2021/12/17 11:25:45;;;;;;;18.35;9.43;;;9.00;99.90;;;;;;5072581;28;20047;-64
2021/12/17 11:28:12;;;;;;;19.90;9.93;;;9.10;99.90;;;;;;5073739;28;20121;-64
2021/12/17 11:30:42;;;;;;;21.67;10.50;;;9.10;99.90;;;;;;5074088;28;20052;-64
2021/12/17 11:33:10;;;;;;;17.17;9.68;;;9.10;99.90;;;;;;5074241;28;20139;-64
2021/12/17 11:35:43;;;;;;;19.23;10.73;;;9.00;99.90;;;;;;5073418;28;20037;-62
2021/12/17 11:38:14;;;;;;;15.80;9.48;;;9.10;99.90;;;;;;5073647;28;20044;-63
2021/12/17 11:40:52;;;;;;;14.48;9.23;;;9.10;99.90;;;;;;5071206;28;20430;-63
2021/12/17 11:43:59;;;;;;;16.45;8.95;;;9.00;99.90;;;;;;5054118;28;20061;-63
2021/12/17 11:46:31;;;;;;;13.88;7.70;;;9.10;99.90;;;;;;5054261;28;20041;-63
2021/12/17 11:49:07;;;;;;;13.27;9.18;;;9.20;99.90;;;;;;5054608;28;20384;-63
2021/12/17 11:51:34;;;;;;;13.73;9.10;;;9.30;99.90;;;;;;5053944;28;20120;-63
2021/12/17 11:54:05;;;;;;;12.25;8.43;;;9.20;99.90;;;;;;5053392;28;20045;-63
2021/12/17 11:56:40;;;;;;;13.85;8.85;;;9.20;99.90;;;;;;5052458;28;20052;-64
2021/12/17 11:59:10;;;;;;;14.20;9.02;;;9.20;99.90;;;;;;5053699;28;20061;-64
2021/12/17 12:02:01;;;;;;;12.73;8.60;;;9.20;99.90;;;;;;5053424;28;20052;-64
2021/12/17 12:04:32;;;;;;;13.07;8.55;;;9.30;99.90;;;;;;5054004;28;20393;-63
2021/12/17 12:07:03;;;;;;;12.38;7.70;;;9.20;99.90;;;;;;5060106;28;20056;-63
2021/12/17 12:10:08;;;;;;;10.98;7.82;;;9.20;99.90;;;;;;5062758;28;20381;-64
2021/12/17 12:12:42;;;;;;;11.48;7.97;;;9.20;99.90;;;;;;5063161;28;20187;-65
2021/12/17 12:15:16;;;;;;;10.25;6.82;;;9.20;99.90;;;;;;5065964;28;20052;-66
2021/12/17 12:17:57;;;;;;;10.70;7.38;;;9.50;99.90;;;;;;5072437;28;20052;-65
2021/12/17 12:20:44;;;;;;;10.45;7.78;;;9.20;99.90;;;;;;5072300;28;20434;-67
2021/12/17 12:23:38;;;;;;;11.98;7.53;;;9.20;99.90;;;;;;5073621;28;20051;-64
2021/12/17 12:26:04;;;;;;;12.98;7.88;;;9.20;99.90;;;;;;5061787;28;20550;-65
2021/12/17 12:28:45;;;;;;;9.35;7.43;;;9.30;99.90;;;;;;5055824;28;20052;-64
2021/12/17 12:31:17;;;;;;;9.50;7.22;;;9.90;99.90;;;;;;5053405;28;20055;-63
2021/12/17 12:34:04;;;;;;;9.35;7.38;;;9.20;99.90;;;;;;5053320;28;20124;-64
2021/12/17 12:36:49;;;;;;;8.75;7.30;;;10.00;99.90;;;;;;5053082;28;20118;-64
2021/12/17 12:39:22;;;;;;;10.30;7.30;;;9.20;99.90;;;;;;5059835;28;20486;-65
2021/12/17 12:41:58;;;;;;;8.25;7.32;;;9.20;99.90;;;;;;5061549;28;20110;-64
2021/12/17 12:44:42;;;;;;;9.25;7.45;;;9.20;99.90;;;;;;5062174;28;20049;-65
2021/12/17 12:47:29;;;;;;;8.88;7.35;;;9.70;99.90;;;;;;5061486;28;20116;-65
2021/12/17 12:50:06;;;;;;;9.48;7.15;;;9.30;99.90;;;;;;5062331;28;20081;-66
2021/12/17 12:52:51;;;;;;;8.75;6.60;;;9.30;99.90;;;;;;5063290;28;20073;-64
2021/12/17 12:55:25;;;;;;;8.63;6.65;;;9.20;99.90;;;;;;5062458;28;20076;-65
2021/12/17 12:57:58;;;;;;;7.97;6.65;;;9.70;99.90;;;;;;5067202;28;20039;-65
2021/12/17 13:00:49;;;;;;;8.20;6.35;;;9.30;99.90;;;;;;5072508;28;20048;-66
2021/12/17 13:03:22;;;;;;;10.25;6.80;;;9.30;99.90;;;;;;5070629;28;20503;-65
2021/12/17 13:05:49;;;;;;;8.73;7.22;;;9.30;99.90;;;;;;5063624;28;20120;-65
2021/12/17 13:08:17;;;;;;;10.73;7.38;;;9.30;99.90;;;;;;5061449;28;20041;-65
2021/12/17 13:10:54;;;;;;;10.40;7.90;;;9.30;99.90;;;;;;5073029;28;20135;-64
2021/12/17 13:13:31;;;;;;;9.52;7.55;;;9.60;99.90;;;;;;5073164;28;20060;-64
2021/12/17 13:24:13;;;;;;;11.13;8.77;;;9.30;99.90;;;;;;5070244;28;20287;-65
2021/12/17 13:26:52;;;;;;;8.82;6.93;;;9.30;99.90;;;;;;5065484;28;20049;-65
2021/12/17 13:29:31;;;;;;;8.25;6.93;;;9.30;99.90;;;;;;5077151;28;20052;-65
2021/12/17 13:32:09;;;;;;;9.30;7.30;;;9.30;99.90;;;;;;5056456;28;20045;-65
2021/12/17 13:34:40;;;;;;;8.13;6.35;;;9.30;99.90;;;;;;5057003;28;20088;-65
2021/12/17 13:37:22;;;;;;;7.10;6.05;;;9.30;99.90;;;;;;5055117;28;20111;-64
2021/12/17 13:39:49;;;;;;;9.15;6.00;;;9.30;99.90;;;;;;5055335;28;20044;-65
2021/12/17 13:42:25;;;;;;;7.75;5.82;;;9.30;99.90;;;;;;5072221;28;20072;-65
2021/12/17 13:44:54;;;;;;;7.82;5.90;;;9.30;99.90;;;;;;5076320;28;20063;-65
2021/12/17 13:47:33;;;;;;;7.57;5.78;;;9.30;99.90;;;;;;5075828;28;20044;-65
2021/12/17 13:50:11;;;;;;;7.25;5.85;;;9.30;99.90;;;;;;5076320;28;20048;-65
2021/12/17 13:52:48;;;;;;;7.90;6.32;;;9.30;99.90;;;;;;5074513;28;20446;-64
2021/12/17 13:55:17;;;;;;;6.97;5.65;;;9.30;99.90;;;;;;5075539;28;20419;-65
2021/12/17 13:57:43;;;;;;;10.52;6.40;;;9.30;99.90;;;;;;5075069;28;20043;-66
2021/12/17 14:00:20;;;;;;;;;;;9.60;99.90;;;;;;5076186;28;20044;-65
2021/12/17 14:02:48;;;;;;;8.97;6.47;;;9.30;99.90;;;;;;5059112;28;19927;-65
2021/12/17 14:05:26;;;;;;;7.47;6.30;;;10.10;99.90;;;;;;5075922;28;20302;-64
2021/12/17 14:07:54;;;;;;;7.22;5.97;;;9.30;99.90;;;;;;5075785;28;20555;-65
2021/12/17 14:10:32;;;;;;;8.65;6.05;;;9.30;99.90;;;;;;5075740;28;20041;-65
2021/12/17 14:12:59;;;;;;;10.65;6.50;;;9.30;99.90;;;;;;5076448;28;20130;-63
2021/12/17 14:15:36;;;;;;;8.50;5.90;;;9.30;99.90;;;;;;5074743;28;20048;-64
2021/12/17 14:18:07;;;;;;;6.75;6.05;;;9.30;99.90;;;;;;5075631;28;20052;-64
2021/12/17 14:20:43;;;;;;;6.72;4.95;;;9.30;99.90;;;;;;5076237;28;20071;-64
2021/12/17 14:23:11;;;;;;;6.93;5.72;;;9.30;99.90;;;;;;5076239;28;20105;-64
2021/12/17 14:25:42;;;;;;;6.45;5.07;;;9.30;99.90;;;;;;5075383;28;20087;-64
2021/12/17 14:28:31;;;;;;;6.97;5.97;;;9.30;99.90;;;;;;5075160;28;20114;-64
2021/12/17 14:31:09;;;;;;;7.50;5.65;;;9.30;99.90;;;;;;5076031;28;20049;-63
2021/12/17 14:33:39;;;;;;;6.65;5.72;;;9.30;99.90;;;;;;5074655;28;20065;-64
2021/12/17 14:36:13;;;;;;;8.43;6.40;;;9.30;99.90;;;;;;5075307;28;20056;-64
2021/12/17 14:38:44;;;;;;;7.07;5.90;;;9.30;99.90;;;;;;5075284;28;20040;-64
2021/12/17 14:41:22;;;;;;;6.03;5.22;;;9.40;99.90;;;;;;5067079;28;20061;-64
2021/12/17 14:43:58;;;;;;;7.53;5.35;;;9.30;99.90;;;;;;5055108;28;20071;-64
2021/12/17 14:46:28;;;;;;;6.85;4.78;;;9.30;99.90;;;;;;5055050;28;20406;-65
2021/12/17 14:58:47;;;;;;;7.47;5.22;;;9.20;99.90;;;;;;5055227;28;20060;-64
2021/12/17 15:01:12;;;;;;;7.32;4.90;;;9.20;99.90;;;;;;5054560;28;20084;-63
2021/12/17 15:03:40;;;;;;;6.68;4.57;;;9.20;99.90;;;;;;5052237;28;20578;-64
2021/12/17 15:06:06;;;;;;;6.72;5.05;;;9.20;99.90;;;;;;5055369;28;20049;-63
2021/12/17 15:08:32;;;;;;;;;;;9.20;99.90;;;;;;5053835;28;20485;-64
2021/12/17 15:10:59;;;;;;;6.28;4.45;;;9.10;99.90;;;;;;5054682;28;19921;-64
2021/12/17 15:13:25;;;;;;;7.78;4.50;;;10.00;99.90;;;;;;5053650;28;20045;-63
2021/12/17 15:15:52;;;;;;;5.93;4.63;;;9.20;99.90;;;;;;5055113;28;20048;-64
2021/12/17 15:18:19;;;;;;;7.15;4.57;;;9.70;99.90;;;;;;5053376;28;20071;-63
2021/12/17 15:20:49;;;;;;;7.57;5.13;;;9.20;99.90;;;;;;5053473;28;20053;-64
2021/12/17 15:23:16;;;;;;;6.05;5.03;;;9.20;99.90;;;;;;5053312;28;20178;-64
